createdAt,value
2019-02-28T00:01:56.872Z,67.90
2019-02-28T00:04:32.007Z,68.00
2019-02-28T00:06:58.637Z,69.00
2019-02-28T00:09:28.651Z,68.40
2019-02-28T00:11:58.650Z,68.30
2019-02-28T00:14:28.703Z,68.60
2019-02-28T00:16:58.812Z,68.80
2019-02-28T00:19:28.823Z,68.90
2019-02-28T00:21:58.931Z,68.80
2019-02-28T00:24:30.029Z,68.70
2019-02-28T00:27:00.987Z,68.80
2019-02-28T00:29:33.456Z,68.70
2019-02-28T00:32:02.803Z,68.70
2019-02-28T00:34:32.837Z,69.10
2019-02-28T00:37:02.842Z,69.20
2019-02-28T00:39:34.808Z,69.50
2019-02-28T00:42:04.582Z,69.20
2019-02-28T00:44:34.607Z,69.60
2019-02-28T00:47:04.639Z,69.60
2019-02-28T00:49:34.639Z,69.70
2019-02-28T00:52:04.654Z,69.80
2019-02-28T00:54:34.646Z,70.10
2019-02-28T00:57:04.670Z,70.40
2019-02-28T00:59:34.663Z,70.50
2019-02-28T01:02:04.755Z,70.40
2019-02-28T01:04:34.754Z,70.60
2019-02-28T01:07:04.763Z,70.70
2019-02-28T01:09:34.746Z,70.90
2019-02-28T01:12:04.759Z,71.20
2019-02-28T01:14:35.823Z,71.30
2019-02-28T01:17:06.463Z,71.50
2019-02-28T01:19:36.487Z,71.40
2019-02-28T01:22:06.504Z,71.10
2019-02-28T01:24:36.485Z,70.80
2019-02-28T01:27:06.561Z,70.50
2019-02-28T01:29:36.553Z,70.40
2019-02-28T01:32:06.695Z,70.50
2019-02-28T01:34:36.689Z,70.30
2019-02-28T01:37:06.806Z,70.40
2019-02-28T01:39:36.789Z,70.40
2019-02-28T01:42:06.812Z,70.60
2019-02-28T01:44:36.914Z,70.70
2019-02-28T01:47:06.932Z,71.10
2019-02-28T01:49:36.934Z,71.30
2019-02-28T01:52:09.861Z,71.40
2019-02-28T01:54:38.761Z,71.40
2019-02-28T01:57:09.994Z,71.60
2019-02-28T01:59:40.253Z,71.80
2019-02-28T02:02:10.309Z,71.60
2019-02-28T02:04:40.282Z,71.60
2019-02-28T02:07:10.306Z,72.10
2019-02-28T02:09:42.657Z,71.10
2019-02-28T02:12:12.082Z,70.90
2019-02-28T02:14:44.710Z,70.80
2019-02-28T02:17:13.791Z,70.80
2019-02-28T02:19:43.842Z,70.90
2019-02-28T02:22:13.894Z,70.80
2019-02-28T02:24:43.882Z,70.80
2019-02-28T02:27:16.301Z,70.70
2019-02-28T02:29:45.615Z,70.80
2019-02-28T02:32:15.642Z,71.00
2019-02-28T02:34:46.221Z,71.00
2019-02-28T02:37:16.391Z,70.90
2019-02-28T02:39:50.073Z,71.00
2019-02-28T02:42:18.175Z,71.00
2019-02-28T02:44:48.281Z,71.20
2019-02-28T02:47:18.458Z,71.40
2019-02-28T02:49:56.178Z,71.40
2019-02-28T02:52:25.563Z,71.60
2019-02-28T02:54:52.945Z,72.10
2019-02-28T02:57:23.350Z,72.50
2019-02-28T02:59:53.449Z,72.50
2019-02-28T03:02:23.521Z,72.40
2019-02-28T03:04:57.914Z,72.40
2019-02-28T03:07:25.373Z,72.40
2019-02-28T03:09:55.387Z,72.70
2019-02-28T03:12:25.423Z,72.80
2019-02-28T03:14:55.568Z,73.10
2019-02-28T03:17:25.631Z,73.30
2019-02-28T03:19:55.700Z,73.70
2019-02-28T03:22:29.902Z,73.50
2019-02-28T03:24:58.624Z,73.60
2019-02-28T03:27:28.740Z,73.70
2019-02-28T03:29:58.862Z,73.70
2019-02-28T03:32:39.745Z,73.80
2019-02-28T03:35:01.816Z,74.10
2019-02-28T03:37:34.555Z,74.10
2019-02-28T03:40:06.428Z,74.50
2019-02-28T03:42:36.768Z,74.40
2019-02-28T03:45:08.056Z,74.60
2019-02-28T03:47:38.226Z,74.00
2019-02-28T03:50:10.688Z,75.00
2019-02-28T03:52:43.933Z,75.10
2019-02-28T03:55:12.771Z,75.30
2019-02-28T03:57:44.532Z,75.60
2019-02-28T04:00:16.326Z,75.70
2019-02-28T04:02:46.392Z,75.90
2019-02-28T04:05:16.425Z,76.10
2019-02-28T04:07:52.889Z,76.30
2019-02-28T04:10:21.760Z,76.40
2019-02-28T04:12:50.116Z,77.40
2019-02-28T04:15:20.423Z,76.80
2019-02-28T04:17:50.661Z,76.80
2019-02-28T04:20:20.844Z,77.10
2019-02-28T04:22:50.967Z,77.10
2019-02-28T04:25:24.107Z,77.30
2019-02-28T04:27:52.904Z,77.70
2019-02-28T04:30:22.991Z,78.60
2019-02-28T04:32:53.047Z,78.00
2019-02-28T04:35:25.258Z,77.80
2019-02-28T04:37:54.935Z,77.60
2019-02-28T04:40:26.979Z,77.20
2019-02-28T04:42:56.722Z,77.00
2019-02-28T04:45:27.069Z,76.70
2019-02-28T04:47:58.370Z,76.40
2019-02-28T04:50:32.136Z,76.00
2019-02-28T04:53:01.168Z,75.50
2019-02-28T04:55:31.244Z,75.00
2019-02-28T04:58:02.674Z,74.60
2019-02-28T05:00:32.723Z,74.20
2019-02-28T05:03:02.830Z,74.10
2019-02-28T05:05:32.848Z,73.90
2019-02-28T05:08:05.757Z,73.60
2019-02-28T05:10:34.726Z,73.30
2019-02-28T05:13:04.766Z,73.10
2019-02-28T05:15:38.496Z,73.10
2019-02-28T05:18:06.527Z,72.70
2019-02-28T05:20:36.599Z,72.50
2019-02-28T05:23:06.626Z,72.70
2019-02-28T05:25:36.671Z,73.00
2019-02-28T05:28:07.544Z,73.70
2019-02-28T05:30:37.720Z,73.10
2019-02-28T05:33:07.779Z,73.20
2019-02-28T05:35:37.793Z,73.30
2019-02-28T05:38:07.853Z,73.60
2019-02-28T05:40:41.402Z,73.90
2019-02-28T05:43:09.976Z,74.30
2019-02-28T05:45:40.019Z,74.40
2019-02-28T05:48:10.172Z,74.90
2019-02-28T05:50:40.219Z,75.10
2019-02-28T05:53:10.307Z,75.30
2019-02-28T05:55:40.408Z,75.40
2019-02-28T05:58:10.486Z,75.60
2019-02-28T06:00:40.618Z,75.70
2019-02-28T06:03:10.708Z,75.90
2019-02-28T06:05:43.461Z,76.10
2019-02-28T06:08:12.626Z,76.10
2019-02-28T06:10:42.679Z,76.20
2019-02-28T06:13:15.323Z,76.50
2019-02-28T06:15:44.940Z,76.70
2019-02-28T06:18:15.006Z,76.90
2019-02-28T06:20:45.075Z,77.00
2019-02-28T06:23:15.213Z,77.20
2019-02-28T06:25:45.338Z,77.40
2019-02-28T06:28:15.426Z,77.30
2019-02-28T06:30:45.439Z,77.20
2019-02-28T06:33:15.629Z,77.00
2019-02-28T06:35:45.672Z,76.80
2019-02-28T06:38:16.248Z,77.20
2019-02-28T06:40:47.500Z,77.50
2019-02-28T06:43:18.755Z,77.80
2019-02-28T06:45:49.347Z,78.20
2019-02-28T06:48:20.827Z,78.40
2019-02-28T06:50:51.208Z,78.40
2019-02-28T06:53:21.355Z,78.50
2019-02-28T06:55:51.598Z,78.80
2019-02-28T06:58:22.004Z,78.80
2019-02-28T07:00:52.110Z,78.50
2019-02-28T07:03:22.193Z,78.30
2019-02-28T07:05:52.277Z,78.30
2019-02-28T07:08:24.715Z,78.40
2019-02-28T07:10:54.208Z,78.40
2019-02-28T07:13:24.308Z,78.20
2019-02-28T07:15:55.494Z,78.00
2019-02-28T07:18:26.180Z,77.80
2019-02-28T07:20:56.302Z,77.40
2019-02-28T07:23:26.661Z,76.90
2019-02-28T07:25:58.196Z,76.40
2019-02-28T07:28:28.304Z,76.20
2019-02-28T07:30:58.510Z,75.90
2019-02-28T07:33:28.654Z,75.40
2019-02-28T07:35:58.790Z,75.80
2019-02-28T07:38:29.734Z,74.70
2019-02-28T07:41:00.873Z,74.40
2019-02-28T07:43:30.962Z,74.10
2019-02-28T07:46:01.012Z,73.60
2019-02-28T07:48:31.658Z,73.20
2019-02-28T07:51:01.847Z,73.00
2019-02-28T07:53:31.911Z,72.50
2019-02-28T07:56:03.837Z,72.10
2019-02-28T07:58:33.819Z,71.60
2019-02-28T08:01:04.204Z,71.20
2019-02-28T08:03:34.335Z,70.80
2019-02-28T08:06:05.700Z,70.40
2019-02-28T08:08:36.026Z,70.10
2019-02-28T08:11:06.468Z,69.80
2019-02-28T08:13:37.741Z,69.20
2019-02-28T08:16:08.608Z,69.10
2019-02-28T08:18:38.682Z,68.30
2019-02-28T08:21:09.433Z,67.90
2019-02-28T08:23:39.787Z,67.50
2019-02-28T08:26:10.047Z,67.00
2019-02-28T08:28:41.654Z,66.40
2019-02-28T08:31:11.943Z,66.00
2019-02-28T08:33:42.076Z,65.50
2019-02-28T08:36:12.772Z,65.10
2019-02-28T08:38:43.748Z,63.70
2019-02-28T08:41:14.033Z,62.20
2019-02-28T08:43:44.544Z,61.40
2019-02-28T08:46:16.089Z,61.20
2019-02-28T08:48:46.387Z,61.40
2019-02-28T08:51:16.528Z,61.40
2019-02-28T08:53:50.824Z,61.30
2019-02-28T08:56:18.631Z,58.60
2019-02-28T08:58:48.764Z,54.00
2019-02-28T09:01:18.879Z,49.80
2019-02-28T09:03:50.251Z,46.40
2019-02-28T09:06:20.487Z,43.50
2019-02-28T09:08:50.602Z,41.80
2019-02-28T09:11:21.099Z,40.80
2019-02-28T09:13:51.895Z,40.00
2019-02-28T09:16:21.977Z,39.80
2019-02-28T09:18:52.095Z,39.20
2019-02-28T09:21:22.171Z,38.60
2019-02-28T09:23:52.215Z,38.50
2019-02-28T09:26:22.276Z,39.00
2019-02-28T09:28:52.347Z,39.10
2019-02-28T09:31:22.498Z,38.90
2019-02-28T09:33:55.431Z,38.70
2019-02-28T09:36:24.483Z,38.90
2019-02-28T09:38:56.997Z,38.40
2019-02-28T09:41:26.408Z,37.70
2019-02-28T09:43:59.351Z,37.30
2019-02-28T09:46:28.359Z,36.70
2019-02-28T09:48:59.971Z,36.50
2019-02-28T09:51:32.011Z,35.20
2019-02-28T09:54:02.051Z,35.40
2019-02-28T09:56:32.187Z,36.00
2019-02-28T09:59:03.133Z,36.80
2019-02-28T10:01:35.190Z,37.40
2019-02-28T10:04:05.316Z,37.70
2019-02-28T10:06:35.459Z,37.90
2019-02-28T10:09:08.759Z,38.90
2019-02-28T10:11:40.528Z,37.80
2019-02-28T10:14:12.198Z,37.40
2019-02-28T10:16:42.411Z,37.60
2019-02-28T10:19:13.281Z,37.80
2019-02-28T10:21:44.313Z,37.20
2019-02-28T10:24:15.494Z,37.10
2019-02-28T10:26:48.181Z,37.70
2019-02-28T10:29:17.409Z,37.90
2019-02-28T10:31:47.559Z,38.80
2019-02-28T10:34:17.618Z,37.80
2019-02-28T10:36:48.903Z,40.10
2019-02-28T10:39:20.531Z,42.80
2019-02-28T10:41:50.703Z,44.60
2019-02-28T10:44:20.908Z,46.00
2019-02-28T10:46:53.842Z,46.90
2019-02-28T10:49:24.145Z,47.70
2019-02-28T10:51:54.643Z,47.70
2019-02-28T10:54:24.843Z,46.80
2019-02-28T10:56:54.907Z,46.40
2019-02-28T10:59:25.175Z,46.50
2019-02-28T11:02:18.999Z,46.60
2019-02-28T11:04:47.870Z,46.60
2019-02-28T11:07:18.048Z,47.10
2019-02-28T11:09:49.549Z,48.00
2019-02-28T11:12:21.700Z,48.80
2019-02-28T11:14:51.607Z,49.30
2019-02-28T11:17:21.690Z,49.40
2019-02-28T11:19:52.735Z,50.10
2019-02-28T11:22:23.095Z,48.80
2019-02-28T11:24:53.564Z,48.10
2019-02-28T11:27:23.704Z,47.60
2019-02-28T11:29:53.856Z,47.60
2019-02-28T11:32:26.427Z,47.50
2019-02-28T11:34:55.701Z,47.60
2019-02-28T11:37:25.844Z,46.90
2019-02-28T11:39:56.123Z,47.10
2019-02-28T11:42:28.052Z,46.30
2019-02-28T11:44:58.892Z,46.70
2019-02-28T11:47:29.224Z,47.30
2019-02-28T11:50:00.336Z,47.60
2019-02-28T11:52:32.351Z,47.80
2019-02-28T11:55:02.570Z,48.10
2019-02-28T11:57:34.270Z,48.00
2019-02-28T12:00:05.287Z,47.90
2019-02-28T12:02:36.737Z,47.80
2019-02-28T12:05:07.326Z,47.60
2019-02-28T12:07:37.362Z,47.30
2019-02-28T12:10:07.827Z,47.30
2019-02-28T12:12:38.219Z,47.10
2019-02-28T12:15:10.116Z,46.90
2019-02-28T12:17:40.134Z,46.60
2019-02-28T12:20:12.820Z,46.30
2019-02-28T12:22:43.991Z,45.90
2019-02-28T12:25:17.334Z,45.20
2019-02-28T12:27:47.379Z,44.50
2019-02-28T12:30:22.006Z,43.80
2019-02-28T12:32:52.601Z,43.40
2019-02-28T12:35:22.886Z,42.80
2019-02-28T12:37:53.891Z,42.40
2019-02-28T12:40:26.931Z,42.00
2019-02-28T12:42:57.087Z,42.60
2019-02-28T12:45:33.278Z,43.00
2019-02-28T12:48:03.599Z,43.40
2019-02-28T12:50:33.737Z,43.70
2019-02-28T12:53:04.987Z,44.00
2019-02-28T12:55:35.515Z,44.40
2019-02-28T12:58:06.858Z,44.60
2019-02-28T13:00:37.748Z,44.50
2019-02-28T13:03:09.249Z,44.90
2019-02-28T13:05:40.343Z,44.60
2019-02-28T13:08:10.433Z,44.80
2019-02-28T13:10:42.177Z,44.70
2019-02-28T13:13:12.391Z,44.70
2019-02-28T13:15:45.519Z,44.40
2019-02-28T13:18:14.343Z,44.30
2019-02-28T13:20:44.423Z,44.10
2019-02-28T13:23:16.973Z,44.00
2019-02-28T13:25:46.534Z,44.20
2019-02-28T13:28:17.691Z,44.00
2019-02-28T13:30:50.524Z,43.90
2019-02-28T13:33:20.297Z,44.00
2019-02-28T13:35:50.559Z,43.90
2019-02-28T13:38:20.823Z,44.40
2019-02-28T13:40:50.985Z,43.60
2019-02-28T13:43:22.632Z,43.50
2019-02-28T13:45:55.697Z,43.30
2019-02-28T13:48:29.990Z,43.20
2019-02-28T13:50:59.392Z,43.00
2019-02-28T13:53:30.771Z,43.10
2019-02-28T13:56:01.609Z,43.10
2019-02-28T13:58:31.806Z,43.50
2019-02-28T14:01:01.972Z,43.30
2019-02-28T14:03:45.950Z,43.50
2019-02-28T14:06:19.688Z,43.80
2019-02-28T14:08:47.792Z,44.00
2019-02-28T14:11:18.755Z,43.90
2019-02-28T14:13:50.274Z,44.20
2019-02-28T14:16:23.659Z,44.10
2019-02-28T14:18:54.527Z,44.20
2019-02-28T14:24:06.882Z,44.00
2019-02-28T14:26:42.731Z,44.00
2019-02-28T14:29:10.540Z,44.20
2019-02-28T14:31:40.818Z,44.30
2019-02-28T14:34:10.878Z,44.40
2019-02-28T14:36:41.783Z,45.10
2019-02-28T14:39:13.267Z,44.50
2019-02-28T14:41:43.451Z,44.50
2019-02-28T14:44:13.617Z,44.60
2019-02-28T14:46:44.786Z,44.50
2019-02-28T14:49:14.950Z,44.50
2019-02-28T14:51:45.163Z,44.70
2019-02-28T14:54:15.363Z,44.80
2019-02-28T14:56:47.475Z,44.20
2019-02-28T14:59:17.541Z,44.10
2019-02-28T15:01:49.494Z,44.60
2019-02-28T15:04:19.514Z,44.00
2019-02-28T15:06:50.553Z,44.20
2019-02-28T15:09:20.787Z,44.30
2019-02-28T15:11:50.994Z,44.50
2019-02-28T15:14:21.150Z,44.60
2019-02-28T15:16:51.314Z,44.80
2019-02-28T15:19:24.317Z,45.20
2019-02-28T15:21:53.344Z,45.40
2019-02-28T15:24:23.467Z,46.10
2019-02-28T15:26:53.647Z,46.10
2019-02-28T15:29:26.829Z,46.30
2019-02-28T15:31:56.960Z,46.70
2019-02-28T15:34:27.147Z,47.00
2019-02-28T15:36:59.320Z,47.30
2019-02-28T15:39:29.201Z,47.60
2019-02-28T15:41:59.291Z,47.90
2019-02-28T15:44:30.184Z,48.20
2019-02-28T15:47:00.503Z,48.60
2019-02-28T15:49:30.624Z,48.90
2019-02-28T15:52:01.828Z,49.10
2019-02-28T15:54:32.633Z,49.10
2019-02-28T15:57:02.687Z,49.30
2019-02-28T15:59:32.863Z,49.30
2019-02-28T16:02:03.561Z,50.10
2019-02-28T16:04:34.949Z,50.30
2019-02-28T16:07:05.138Z,49.70
2019-02-28T16:09:35.239Z,49.90
2019-02-28T16:12:07.056Z,50.30
2019-02-28T16:14:38.331Z,50.60
2019-02-28T16:17:08.419Z,51.00
2019-02-28T16:19:38.538Z,51.20
2019-02-28T16:22:08.753Z,51.50
2019-02-28T16:24:39.761Z,51.80
2019-02-28T16:27:10.774Z,52.00
2019-02-28T16:29:40.904Z,52.40
2019-02-28T16:32:14.119Z,52.50
2019-02-28T16:34:43.282Z,52.80
2019-02-28T16:37:13.413Z,52.90
2019-02-28T16:39:43.466Z,53.10
2019-02-28T16:42:13.566Z,53.20
2019-02-28T16:44:43.747Z,53.20
2019-02-28T16:47:13.928Z,53.90
2019-02-28T16:49:45.256Z,53.50
2019-02-28T16:52:15.368Z,53.70
2019-02-28T16:54:45.563Z,54.00
2019-02-28T16:57:15.702Z,54.40
2019-02-28T16:59:45.862Z,54.70
2019-02-28T17:02:16.079Z,55.10
2019-02-28T17:04:48.646Z,55.60
2019-02-28T17:07:18.271Z,55.90
2019-02-28T17:09:48.357Z,56.10
2019-02-28T17:12:36.402Z,56.60
2019-02-28T17:15:13.258Z,56.80
2019-02-28T17:17:50.714Z,57.00
2019-02-28T17:20:20.784Z,57.30
2019-02-28T17:22:50.855Z,57.80
2019-02-28T17:25:21.682Z,58.20
2019-02-28T17:28:01.231Z,58.60
2019-02-28T17:30:50.366Z,60.00
2019-02-28T17:33:20.590Z,61.10
2019-02-28T17:35:50.767Z,61.30
2019-02-28T17:38:20.969Z,61.20
2019-02-28T17:40:51.064Z,60.20
2019-02-28T17:43:24.182Z,59.50
2019-02-28T17:45:53.180Z,59.30
2019-02-28T17:49:19.386Z,59.30
2019-02-28T17:52:13.239Z,59.40
2019-02-28T17:55:12.432Z,59.40
2019-02-28T17:58:21.511Z,59.20
2019-02-28T18:01:31.507Z,59.30
2019-02-28T18:04:34.371Z,59.30
2019-02-28T18:07:40.470Z,59.40
2019-02-28T18:10:52.133Z,59.40
2019-02-28T18:13:28.234Z,59.50
2019-02-28T18:16:43.375Z,59.40
2019-02-28T18:19:22.772Z,59.50
2019-02-28T18:22:31.374Z,59.30
2019-02-28T18:25:41.517Z,59.40
2019-02-28T18:28:46.574Z,59.30
2019-02-28T18:31:19.122Z,59.60
2019-02-28T18:34:00.882Z,59.50
2019-02-28T18:36:32.171Z,59.60
2019-02-28T18:39:02.248Z,59.60
2019-02-28T18:41:34.166Z,59.70
2019-02-28T18:44:05.124Z,59.70
2019-02-28T18:46:35.336Z,59.70
2019-02-28T18:49:05.455Z,59.80
2019-02-28T18:51:36.610Z,59.60
2019-02-28T18:54:06.737Z,59.50
2019-02-28T18:56:36.838Z,59.80
2019-02-28T18:59:06.971Z,59.40
2019-02-28T19:01:37.025Z,59.40
2019-02-28T19:04:07.236Z,59.40
2019-02-28T19:06:37.279Z,59.50
2019-02-28T19:09:18.779Z,59.70
2019-02-28T19:11:48.948Z,59.80
2019-02-28T19:14:19.271Z,60.00
2019-02-28T19:16:49.526Z,60.20
2019-02-28T19:19:19.679Z,60.20
2019-02-28T19:21:49.791Z,60.40
2019-02-28T19:24:19.933Z,60.70
2019-02-28T19:26:50.101Z,60.90
2019-02-28T19:29:20.155Z,61.20
2019-02-28T19:31:50.183Z,61.40
2019-02-28T19:34:21.487Z,61.60
2019-02-28T19:36:51.595Z,61.80
2019-02-28T19:39:21.656Z,61.90
2019-02-28T19:41:53.198Z,62.00
2019-02-28T19:44:23.243Z,62.00
2019-02-28T19:46:53.374Z,62.00
2019-02-28T19:49:23.471Z,62.30
2019-02-28T19:51:53.535Z,62.70
2019-02-28T19:54:23.683Z,62.80
2019-02-28T19:56:53.735Z,62.90
2019-02-28T19:59:23.885Z,63.10
2019-02-28T20:01:54.004Z,63.70
2019-02-28T20:04:24.151Z,64.20
2019-02-28T20:06:54.199Z,64.80
2019-02-28T20:09:25.496Z,65.00
2019-02-28T20:11:55.741Z,65.40
2019-02-28T20:14:26.671Z,65.80
2019-02-28T20:16:56.696Z,67.10
2019-02-28T20:19:26.760Z,66.40
2019-02-28T20:21:56.820Z,66.60
2019-02-28T20:24:27.037Z,66.70
2019-02-28T20:26:57.145Z,66.90
2019-02-28T20:29:27.277Z,67.20
2019-02-28T20:31:57.394Z,67.30
2019-02-28T20:34:29.157Z,67.50
2019-02-28T20:36:59.410Z,67.60
2019-02-28T20:39:48.643Z,67.80
2019-02-28T20:42:19.689Z,68.10
2019-02-28T20:44:50.043Z,68.60
2019-02-28T20:47:20.270Z,69.10
2019-02-28T20:49:50.466Z,69.30
2019-02-28T20:52:20.582Z,69.40
2019-02-28T20:54:50.791Z,69.70
2019-02-28T20:57:20.916Z,69.80
2019-02-28T20:59:51.047Z,70.00
2019-02-28T21:02:21.156Z,70.10
2019-02-28T21:04:51.256Z,70.30
2019-02-28T21:07:21.405Z,70.60
2019-02-28T21:09:51.486Z,70.80
2019-02-28T21:12:21.964Z,71.10
2019-02-28T21:14:52.087Z,71.10
2019-02-28T21:17:29.223Z,71.20
2019-02-28T21:19:54.132Z,71.40
2019-02-28T21:22:24.198Z,71.70
2019-02-28T21:24:54.411Z,71.70
2019-02-28T21:27:24.472Z,72.00
2019-02-28T21:29:54.605Z,72.00
2019-02-28T21:32:24.832Z,72.00
2019-02-28T21:34:55.016Z,72.20
2019-02-28T21:37:26.341Z,72.40
2019-02-28T21:39:56.630Z,72.40
2019-02-28T21:42:26.958Z,72.60
2019-02-28T21:44:57.099Z,72.60
2019-02-28T21:47:27.276Z,72.70
2019-02-28T21:49:57.364Z,72.70
2019-02-28T21:52:27.516Z,73.00
2019-02-28T21:54:57.647Z,73.00
2019-02-28T21:57:27.757Z,72.70
2019-02-28T21:59:57.811Z,72.60
2019-02-28T22:02:27.962Z,72.70
2019-02-28T22:04:58.110Z,73.00
2019-02-28T22:07:28.224Z,72.80
2019-02-28T22:09:58.579Z,73.00
2019-02-28T22:12:28.751Z,73.00
2019-02-28T22:14:58.824Z,73.30
2019-02-28T22:17:28.975Z,73.30
2019-02-28T22:19:59.143Z,73.40
2019-02-28T22:22:29.223Z,73.30
2019-02-28T22:24:59.380Z,73.30
2019-02-28T22:27:29.558Z,73.40
2019-02-28T22:30:01.531Z,73.40
2019-02-28T22:32:42.014Z,73.40
2019-02-28T22:35:20.792Z,73.50
2019-02-28T22:37:51.028Z,73.50
2019-02-28T22:40:21.345Z,73.70
2019-02-28T22:42:51.411Z,73.60
2019-02-28T22:45:21.483Z,73.80
2019-02-28T22:47:51.635Z,74.00
2019-02-28T22:50:21.793Z,74.00
2019-02-28T22:52:54.044Z,74.00
2019-02-28T22:55:24.156Z,73.90
2019-02-28T22:57:54.345Z,74.00
2019-02-28T23:00:38.262Z,73.90
2019-02-28T23:03:10.079Z,73.90
2019-02-28T23:05:41.215Z,73.90
2019-02-28T23:08:11.364Z,73.70
2019-02-28T23:10:41.436Z,73.60
2019-02-28T23:13:11.511Z,73.60
2019-02-28T23:15:41.641Z,73.50
2019-02-28T23:18:11.715Z,73.60
2019-02-28T23:20:41.876Z,73.70
2019-02-28T23:23:12.002Z,73.70
2019-02-28T23:25:42.155Z,73.80
2019-02-28T23:28:14.623Z,73.80
2019-02-28T23:31:31.919Z,73.60
2019-02-28T23:34:05.371Z,73.80
2019-02-28T23:36:35.499Z,73.70
2019-02-28T23:39:07.895Z,73.90
2019-02-28T23:41:39.626Z,74.10
2019-02-28T23:44:09.745Z,74.20
2019-02-28T23:46:39.881Z,74.30
2019-02-28T23:49:10.052Z,74.60
2019-02-28T23:51:40.086Z,75.20
2019-02-28T23:54:10.274Z,76.10
2019-02-28T23:56:40.404Z,76.90
2019-02-28T23:59:10.611Z,77.80
